sensor_id;sensor_type;location;lat;lon;timestamp;P1;durP1;ratioP1;P2;durP2;ratioP2
4630;SDS011;2328;48.170;11.602;2023-03-31T00:01:42;2.20;;;1.20;;
4630;SDS011;2328;48.170;11.602;2023-03-31T00:04:11;1.70;;;1.03;;
4630;SDS011;2328;48.170;11.602;2023-03-31T00:06:40;3.63;;;1.30;;
4630;SDS011;2328;48.170;11.602;2023-03-31T00:09:10;1.30;;;1.20;;
4630;SDS011;2328;48.170;11.602;2023-03-31T00:11:38;1.87;;;0.90;;
4630;SDS011;2328;48.170;11.602;2023-03-31T00:14:08;1.40;;;1.30;;
4630;SDS011;2328;48.170;11.602;2023-03-31T00:16:37;2.23;;;1.50;;
4630;SDS011;2328;48.170;11.602;2023-03-31T00:19:06;1.53;;;1.20;;
4630;SDS011;2328;48.170;11.602;2023-03-31T00:21:43;2.80;;;1.77;;
4630;SDS011;2328;48.170;11.602;2023-03-31T00:24:13;1.50;;;1.40;;
4630;SDS011;2328;48.170;11.602;2023-03-31T00:26:42;1.17;;;1.00;;
4630;SDS011;2328;48.170;11.602;2023-03-31T00:29:12;2.07;;;1.50;;
4630;SDS011;2328;48.170;11.602;2023-03-31T00:31:41;3.13;;;1.67;;
4630;SDS011;2328;48.170;11.602;2023-03-31T00:34:10;4.03;;;1.70;;
4630;SDS011;2328;48.170;11.602;2023-03-31T00:36:38;1.70;;;1.50;;
4630;SDS011;2328;48.170;11.602;2023-03-31T00:39:24;2.53;;;2.10;;
4630;SDS011;2328;48.170;11.602;2023-03-31T00:41:57;5.30;;;1.77;;
4630;SDS011;2328;48.170;11.602;2023-03-31T00:44:29;3.70;;;2.10;;
4630;SDS011;2328;48.170;11.602;2023-03-31T00:47:00;2.13;;;1.83;;
4630;SDS011;2328;48.170;11.602;2023-03-31T00:49:35;5.50;;;1.77;;
4630;SDS011;2328;48.170;11.602;2023-03-31T00:52:07;2.07;;;1.53;;
4630;SDS011;2328;48.170;11.602;2023-03-31T00:54:38;2.70;;;1.53;;
4630;SDS011;2328;48.170;11.602;2023-03-31T00:57:10;2.90;;;1.70;;
4630;SDS011;2328;48.170;11.602;2023-03-31T00:59:42;2.80;;;1.67;;
4630;SDS011;2328;48.170;11.602;2023-03-31T01:02:11;1.60;;;1.50;;
4630;SDS011;2328;48.170;11.602;2023-03-31T01:04:42;3.70;;;1.90;;
4630;SDS011;2328;48.170;11.602;2023-03-31T01:07:13;5.50;;;2.10;;
4630;SDS011;2328;48.170;11.602;2023-03-31T01:09:43;7.50;;;1.83;;
4630;SDS011;2328;48.170;11.602;2023-03-31T01:12:14;3.40;;;1.73;;
4630;SDS011;2328;48.170;11.602;2023-03-31T01:14:44;2.83;;;1.83;;
4630;SDS011;2328;48.170;11.602;2023-03-31T01:17:22;4.47;;;2.47;;
4630;SDS011;2328;48.170;11.602;2023-03-31T01:19:56;4.67;;;2.10;;
4630;SDS011;2328;48.170;11.602;2023-03-31T01:22:52;3.50;;;1.87;;
4630;SDS011;2328;48.170;11.602;2023-03-31T01:28:20;2.83;;;1.97;;
4630;SDS011;2328;48.170;11.602;2023-03-31T01:33:42;3.67;;;2.17;;
4630;SDS011;2328;48.170;11.602;2023-03-31T01:36:25;3.30;;;2.33;;
4630;SDS011;2328;48.170;11.602;2023-03-31T01:42:00;4.30;;;2.07;;
4630;SDS011;2328;48.170;11.602;2023-03-31T01:44:32;3.17;;;2.20;;
4630;SDS011;2328;48.170;11.602;2023-03-31T01:47:04;2.33;;;1.90;;
4630;SDS011;2328;48.170;11.602;2023-03-31T01:49:34;1.90;;;1.70;;
4630;SDS011;2328;48.170;11.602;2023-03-31T01:52:05;3.83;;;2.30;;
4630;SDS011;2328;48.170;11.602;2023-03-31T01:54:37;2.43;;;2.03;;
4630;SDS011;2328;48.170;11.602;2023-03-31T01:57:10;2.07;;;1.50;;
4630;SDS011;2328;48.170;11.602;2023-03-31T01:59:42;2.10;;;1.60;;
4630;SDS011;2328;48.170;11.602;2023-03-31T02:02:13;3.17;;;1.77;;
4630;SDS011;2328;48.170;11.602;2023-03-31T02:04:45;3.67;;;2.27;;
4630;SDS011;2328;48.170;11.602;2023-03-31T02:07:15;3.03;;;2.17;;
4630;SDS011;2328;48.170;11.602;2023-03-31T02:09:44;2.27;;;1.67;;
4630;SDS011;2328;48.170;11.602;2023-03-31T02:12:17;4.27;;;2.07;;
4630;SDS011;2328;48.170;11.602;2023-03-31T02:14:46;3.80;;;2.30;;
4630;SDS011;2328;48.170;11.602;2023-03-31T02:17:18;3.33;;;2.20;;
4630;SDS011;2328;48.170;11.602;2023-03-31T02:19:56;3.03;;;1.60;;
4630;SDS011;2328;48.170;11.602;2023-03-31T02:22:28;4.50;;;2.43;;
4630;SDS011;2328;48.170;11.602;2023-03-31T02:24:58;2.30;;;1.80;;
4630;SDS011;2328;48.170;11.602;2023-03-31T02:27:30;3.37;;;2.30;;
4630;SDS011;2328;48.170;11.602;2023-03-31T02:30:00;3.43;;;2.07;;
4630;SDS011;2328;48.170;11.602;2023-03-31T02:32:30;2.60;;;1.93;;
4630;SDS011;2328;48.170;11.602;2023-03-31T02:34:59;3.40;;;2.43;;
4630;SDS011;2328;48.170;11.602;2023-03-31T02:37:28;2.97;;;1.93;;
4630;SDS011;2328;48.170;11.602;2023-03-31T02:39:58;2.73;;;1.67;;
4630;SDS011;2328;48.170;11.602;2023-03-31T02:42:27;3.03;;;1.80;;
4630;SDS011;2328;48.170;11.602;2023-03-31T02:45:01;2.13;;;1.83;;
4630;SDS011;2328;48.170;11.602;2023-03-31T02:47:30;10.33;;;2.07;;
4630;SDS011;2328;48.170;11.602;2023-03-31T02:49:59;3.03;;;2.17;;
4630;SDS011;2328;48.170;11.602;2023-03-31T02:52:39;3.90;;;2.70;;
4630;SDS011;2328;48.170;11.602;2023-03-31T02:55:14;3.47;;;2.63;;
4630;SDS011;2328;48.170;11.602;2023-03-31T02:57:47;4.83;;;2.63;;
4630;SDS011;2328;48.170;11.602;2023-03-31T03:00:22;4.80;;;2.30;;
4630;SDS011;2328;48.170;11.602;2023-03-31T03:02:58;2.10;;;1.90;;
4630;SDS011;2328;48.170;11.602;2023-03-31T03:05:31;2.43;;;2.23;;
4630;SDS011;2328;48.170;11.602;2023-03-31T03:08:05;3.87;;;2.30;;
4630;SDS011;2328;48.170;11.602;2023-03-31T03:10:39;3.60;;;2.30;;
4630;SDS011;2328;48.170;11.602;2023-03-31T03:13:14;3.37;;;2.10;;
4630;SDS011;2328;48.170;11.602;2023-03-31T03:15:46;2.50;;;1.80;;
4630;SDS011;2328;48.170;11.602;2023-03-31T03:18:16;3.00;;;2.60;;
4630;SDS011;2328;48.170;11.602;2023-03-31T03:20:44;2.40;;;2.10;;
4630;SDS011;2328;48.170;11.602;2023-03-31T03:23:16;3.93;;;2.03;;
4630;SDS011;2328;48.170;11.602;2023-03-31T03:25:44;2.73;;;2.50;;
4630;SDS011;2328;48.170;11.602;2023-03-31T03:28:13;3.73;;;3.00;;
4630;SDS011;2328;48.170;11.602;2023-03-31T03:30:42;2.60;;;2.07;;
4630;SDS011;2328;48.170;11.602;2023-03-31T03:33:12;2.60;;;2.40;;
4630;SDS011;2328;48.170;11.602;2023-03-31T03:35:42;5.40;;;2.87;;
4630;SDS011;2328;48.170;11.602;2023-03-31T03:38:11;8.70;;;3.53;;
4630;SDS011;2328;48.170;11.602;2023-03-31T03:40:40;2.33;;;2.13;;
4630;SDS011;2328;48.170;11.602;2023-03-31T03:43:08;5.17;;;3.00;;
4630;SDS011;2328;48.170;11.602;2023-03-31T03:45:37;7.57;;;2.90;;
4630;SDS011;2328;48.170;11.602;2023-03-31T03:48:05;8.30;;;2.97;;
4630;SDS011;2328;48.170;11.602;2023-03-31T03:50:36;3.50;;;2.00;;
4630;SDS011;2328;48.170;11.602;2023-03-31T03:53:05;7.10;;;2.43;;
4630;SDS011;2328;48.170;11.602;2023-03-31T03:55:33;5.43;;;2.87;;
4630;SDS011;2328;48.170;11.602;2023-03-31T03:58:02;2.10;;;1.90;;
4630;SDS011;2328;48.170;11.602;2023-03-31T04:00:31;3.33;;;2.20;;
4630;SDS011;2328;48.170;11.602;2023-03-31T04:02:59;8.37;;;2.67;;
4630;SDS011;2328;48.170;11.602;2023-03-31T04:05:28;4.00;;;2.03;;
4630;SDS011;2328;48.170;11.602;2023-03-31T04:07:58;5.50;;;2.57;;
4630;SDS011;2328;48.170;11.602;2023-03-31T04:10:26;2.40;;;2.10;;
4630;SDS011;2328;48.170;11.602;2023-03-31T04:12:55;4.67;;;2.43;;
4630;SDS011;2328;48.170;11.602;2023-03-31T04:15:23;2.30;;;2.10;;
4630;SDS011;2328;48.170;11.602;2023-03-31T04:17:51;2.40;;;2.17;;
4630;SDS011;2328;48.170;11.602;2023-03-31T04:20:20;3.80;;;2.80;;
4630;SDS011;2328;48.170;11.602;2023-03-31T04:22:53;4.67;;;2.40;;
4630;SDS011;2328;48.170;11.602;2023-03-31T04:25:23;2.17;;;1.70;;
4630;SDS011;2328;48.170;11.602;2023-03-31T04:27:56;11.60;;;2.70;;
4630;SDS011;2328;48.170;11.602;2023-03-31T04:30:24;2.60;;;2.03;;
4630;SDS011;2328;48.170;11.602;2023-03-31T04:32:56;3.60;;;2.23;;
4630;SDS011;2328;48.170;11.602;2023-03-31T04:35:26;6.50;;;2.60;;
4630;SDS011;2328;48.170;11.602;2023-03-31T04:41:21;4.37;;;2.80;;
4630;SDS011;2328;48.170;11.602;2023-03-31T04:43:50;2.20;;;2.00;;
4630;SDS011;2328;48.170;11.602;2023-03-31T04:46:18;3.10;;;2.13;;
4630;SDS011;2328;48.170;11.602;2023-03-31T04:48:47;3.80;;;2.33;;
4630;SDS011;2328;48.170;11.602;2023-03-31T04:51:15;14.30;;;2.80;;
4630;SDS011;2328;48.170;11.602;2023-03-31T04:53:45;6.60;;;2.30;;
4630;SDS011;2328;48.170;11.602;2023-03-31T04:56:13;4.00;;;2.57;;
4630;SDS011;2328;48.170;11.602;2023-03-31T04:58:43;10.37;;;2.20;;
4630;SDS011;2328;48.170;11.602;2023-03-31T05:01:12;2.03;;;1.90;;
4630;SDS011;2328;48.170;11.602;2023-03-31T05:03:43;4.57;;;3.00;;
4630;SDS011;2328;48.170;11.602;2023-03-31T05:06:13;4.40;;;2.87;;
4630;SDS011;2328;48.170;11.602;2023-03-31T05:08:42;7.57;;;2.67;;
4630;SDS011;2328;48.170;11.602;2023-03-31T05:11:10;4.63;;;3.07;;
4630;SDS011;2328;48.170;11.602;2023-03-31T05:13:39;2.93;;;2.03;;
4630;SDS011;2328;48.170;11.602;2023-03-31T05:16:09;2.93;;;2.30;;
4630;SDS011;2328;48.170;11.602;2023-03-31T05:18:39;5.07;;;2.80;;
4630;SDS011;2328;48.170;11.602;2023-03-31T05:21:09;5.97;;;2.17;;
4630;SDS011;2328;48.170;11.602;2023-03-31T05:23:38;3.10;;;2.23;;
4630;SDS011;2328;48.170;11.602;2023-03-31T05:26:06;6.30;;;2.83;;
4630;SDS011;2328;48.170;11.602;2023-03-31T05:28:35;9.20;;;2.93;;
4630;SDS011;2328;48.170;11.602;2023-03-31T05:31:04;11.67;;;3.10;;
4630;SDS011;2328;48.170;11.602;2023-03-31T05:33:34;3.20;;;2.70;;
4630;SDS011;2328;48.170;11.602;2023-03-31T05:36:06;6.70;;;2.83;;
4630;SDS011;2328;48.170;11.602;2023-03-31T05:38:35;3.90;;;2.23;;
4630;SDS011;2328;48.170;11.602;2023-03-31T05:41:04;4.97;;;2.53;;
4630;SDS011;2328;48.170;11.602;2023-03-31T05:43:34;4.93;;;3.10;;
4630;SDS011;2328;48.170;11.602;2023-03-31T05:46:03;3.43;;;2.43;;
4630;SDS011;2328;48.170;11.602;2023-03-31T05:48:32;6.27;;;2.57;;
4630;SDS011;2328;48.170;11.602;2023-03-31T05:51:02;5.53;;;2.70;;
4630;SDS011;2328;48.170;11.602;2023-03-31T05:53:30;5.80;;;2.90;;
4630;SDS011;2328;48.170;11.602;2023-03-31T05:55:59;5.10;;;3.40;;
4630;SDS011;2328;48.170;11.602;2023-03-31T05:58:28;2.60;;;2.40;;
4630;SDS011;2328;48.170;11.602;2023-03-31T06:01:03;4.03;;;2.77;;
4630;SDS011;2328;48.170;11.602;2023-03-31T06:03:33;4.90;;;3.10;;
4630;SDS011;2328;48.170;11.602;2023-03-31T06:06:03;7.30;;;2.50;;
4630;SDS011;2328;48.170;11.602;2023-03-31T06:08:33;5.40;;;2.20;;
4630;SDS011;2328;48.170;11.602;2023-03-31T06:11:02;8.13;;;3.40;;
4630;SDS011;2328;48.170;11.602;2023-03-31T06:13:32;8.40;;;2.90;;
4630;SDS011;2328;48.170;11.602;2023-03-31T06:16:02;6.83;;;2.40;;
4630;SDS011;2328;48.170;11.602;2023-03-31T06:18:31;6.83;;;2.83;;
4630;SDS011;2328;48.170;11.602;2023-03-31T06:21:00;6.50;;;4.27;;
4630;SDS011;2328;48.170;11.602;2023-03-31T06:23:30;5.30;;;2.47;;
4630;SDS011;2328;48.170;11.602;2023-03-31T06:25:59;6.80;;;3.10;;
4630;SDS011;2328;48.170;11.602;2023-03-31T06:28:28;5.40;;;3.03;;
4630;SDS011;2328;48.170;11.602;2023-03-31T06:31:00;5.20;;;2.90;;
4630;SDS011;2328;48.170;11.602;2023-03-31T06:33:29;4.47;;;3.80;;
4630;SDS011;2328;48.170;11.602;2023-03-31T06:35:58;3.73;;;2.40;;
4630;SDS011;2328;48.170;11.602;2023-03-31T06:38:27;10.17;;;2.60;;
4630;SDS011;2328;48.170;11.602;2023-03-31T06:40:56;3.97;;;2.40;;
4630;SDS011;2328;48.170;11.602;2023-03-31T06:43:25;6.60;;;2.73;;
4630;SDS011;2328;48.170;11.602;2023-03-31T06:45:54;7.17;;;3.60;;
4630;SDS011;2328;48.170;11.602;2023-03-31T06:48:23;5.40;;;2.87;;
4630;SDS011;2328;48.170;11.602;2023-03-31T06:50:52;4.40;;;2.70;;
4630;SDS011;2328;48.170;11.602;2023-03-31T06:53:20;5.57;;;2.73;;
4630;SDS011;2328;48.170;11.602;2023-03-31T06:55:49;6.63;;;2.70;;
4630;SDS011;2328;48.170;11.602;2023-03-31T06:58:19;4.53;;;2.50;;
4630;SDS011;2328;48.170;11.602;2023-03-31T07:00:47;4.67;;;2.90;;
4630;SDS011;2328;48.170;11.602;2023-03-31T07:03:16;5.93;;;2.80;;
4630;SDS011;2328;48.170;11.602;2023-03-31T07:05:48;7.73;;;2.90;;
4630;SDS011;2328;48.170;11.602;2023-03-31T07:08:16;3.47;;;2.50;;
4630;SDS011;2328;48.170;11.602;2023-03-31T07:10:44;8.70;;;3.40;;
4630;SDS011;2328;48.170;11.602;2023-03-31T07:13:14;2.27;;;2.07;;
4630;SDS011;2328;48.170;11.602;2023-03-31T07:15:45;7.00;;;2.30;;
4630;SDS011;2328;48.170;11.602;2023-03-31T07:18:14;3.60;;;2.70;;
4630;SDS011;2328;48.170;11.602;2023-03-31T07:20:43;10.30;;;2.90;;
4630;SDS011;2328;48.170;11.602;2023-03-31T07:23:11;3.83;;;2.47;;
4630;SDS011;2328;48.170;11.602;2023-03-31T07:25:40;3.90;;;3.03;;
4630;SDS011;2328;48.170;11.602;2023-03-31T07:28:09;5.90;;;2.80;;
4630;SDS011;2328;48.170;11.602;2023-03-31T07:30:38;9.83;;;3.00;;
4630;SDS011;2328;48.170;11.602;2023-03-31T07:33:08;6.40;;;2.97;;
4630;SDS011;2328;48.170;11.602;2023-03-31T07:35:37;7.43;;;3.00;;
4630;SDS011;2328;48.170;11.602;2023-03-31T07:38:06;4.83;;;3.00;;
4630;SDS011;2328;48.170;11.602;2023-03-31T07:40:35;5.03;;;2.80;;
4630;SDS011;2328;48.170;11.602;2023-03-31T07:43:04;6.90;;;2.23;;
4630;SDS011;2328;48.170;11.602;2023-03-31T07:45:33;3.50;;;2.97;;
4630;SDS011;2328;48.170;11.602;2023-03-31T07:48:01;4.20;;;3.00;;
4630;SDS011;2328;48.170;11.602;2023-03-31T07:50:32;5.93;;;2.83;;
4630;SDS011;2328;48.170;11.602;2023-03-31T07:53:00;6.13;;;3.70;;
4630;SDS011;2328;48.170;11.602;2023-03-31T07:55:29;4.20;;;2.80;;
4630;SDS011;2328;48.170;11.602;2023-03-31T07:57:57;7.73;;;3.20;;
4630;SDS011;2328;48.170;11.602;2023-03-31T08:00:26;3.53;;;2.87;;
4630;SDS011;2328;48.170;11.602;2023-03-31T08:02:54;5.47;;;3.20;;
4630;SDS011;2328;48.170;11.602;2023-03-31T08:05:23;5.53;;;2.80;;
4630;SDS011;2328;48.170;11.602;2023-03-31T08:07:52;6.33;;;3.17;;
4630;SDS011;2328;48.170;11.602;2023-03-31T08:10:22;4.87;;;3.10;;
4630;SDS011;2328;48.170;11.602;2023-03-31T08:12:50;12.63;;;3.20;;
4630;SDS011;2328;48.170;11.602;2023-03-31T08:15:19;7.27;;;3.63;;
4630;SDS011;2328;48.170;11.602;2023-03-31T08:17:48;4.63;;;2.70;;
4630;SDS011;2328;48.170;11.602;2023-03-31T08:20:17;3.50;;;2.50;;
4630;SDS011;2328;48.170;11.602;2023-03-31T08:22:45;4.00;;;3.10;;
4630;SDS011;2328;48.170;11.602;2023-03-31T08:25:15;10.90;;;3.70;;
4630;SDS011;2328;48.170;11.602;2023-03-31T08:27:43;6.23;;;3.60;;
4630;SDS011;2328;48.170;11.602;2023-03-31T08:30:14;4.33;;;3.03;;
4630;SDS011;2328;48.170;11.602;2023-03-31T08:32:43;6.00;;;2.70;;
4630;SDS011;2328;48.170;11.602;2023-03-31T08:35:11;3.37;;;2.67;;
4630;SDS011;2328;48.170;11.602;2023-03-31T08:37:40;19.43;;;3.43;;
4630;SDS011;2328;48.170;11.602;2023-03-31T08:40:09;8.20;;;2.43;;
4630;SDS011;2328;48.170;11.602;2023-03-31T08:42:48;3.63;;;2.10;;
4630;SDS011;2328;48.170;11.602;2023-03-31T08:45:18;10.33;;;2.57;;
4630;SDS011;2328;48.170;11.602;2023-03-31T08:47:49;4.63;;;2.87;;
4630;SDS011;2328;48.170;11.602;2023-03-31T08:50:20;7.73;;;2.30;;
4630;SDS011;2328;48.170;11.602;2023-03-31T08:52:51;3.33;;;2.50;;
4630;SDS011;2328;48.170;11.602;2023-03-31T08:55:23;5.80;;;2.63;;
4630;SDS011;2328;48.170;11.602;2023-03-31T08:57:55;4.20;;;2.60;;
4630;SDS011;2328;48.170;11.602;2023-03-31T09:00:25;6.83;;;2.70;;
4630;SDS011;2328;48.170;11.602;2023-03-31T09:02:59;3.90;;;2.30;;
4630;SDS011;2328;48.170;11.602;2023-03-31T09:05:34;3.13;;;2.10;;
4630;SDS011;2328;48.170;11.602;2023-03-31T09:08:30;3.70;;;2.53;;
4630;SDS011;2328;48.170;11.602;2023-03-31T09:11:03;1.90;;;1.80;;
4630;SDS011;2328;48.170;11.602;2023-03-31T09:13:41;2.63;;;1.87;;
4630;SDS011;2328;48.170;11.602;2023-03-31T09:16:17;2.73;;;2.13;;
4630;SDS011;2328;48.170;11.602;2023-03-31T09:18:47;3.30;;;1.97;;
4630;SDS011;2328;48.170;11.602;2023-03-31T09:21:17;3.80;;;1.80;;
4630;SDS011;2328;48.170;11.602;2023-03-31T09:23:54;1.87;;;1.53;;
4630;SDS011;2328;48.170;11.602;2023-03-31T09:26:39;1.70;;;1.60;;
4630;SDS011;2328;48.170;11.602;2023-03-31T09:29:14;3.37;;;1.93;;
4630;SDS011;2328;48.170;11.602;2023-03-31T09:31:44;2.30;;;1.93;;
4630;SDS011;2328;48.170;11.602;2023-03-31T09:34:14;1.80;;;1.60;;
4630;SDS011;2328;48.170;11.602;2023-03-31T09:36:43;8.10;;;3.10;;
4630;SDS011;2328;48.170;11.602;2023-03-31T09:39:13;2.97;;;1.87;;
4630;SDS011;2328;48.170;11.602;2023-03-31T09:41:43;3.63;;;1.80;;
4630;SDS011;2328;48.170;11.602;2023-03-31T09:44:21;4.33;;;1.87;;
4630;SDS011;2328;48.170;11.602;2023-03-31T09:46:50;6.63;;;1.43;;
4630;SDS011;2328;48.170;11.602;2023-03-31T09:49:26;2.33;;;1.70;;
4630;SDS011;2328;48.170;11.602;2023-03-31T09:51:58;2.60;;;1.53;;
4630;SDS011;2328;48.170;11.602;2023-03-31T09:54:27;1.10;;;1.00;;
4630;SDS011;2328;48.170;11.602;2023-03-31T09:57:00;2.60;;;1.10;;
4630;SDS011;2328;48.170;11.602;2023-03-31T09:59:31;2.77;;;1.30;;
4630;SDS011;2328;48.170;11.602;2023-03-31T10:02:03;1.30;;;1.20;;
4630;SDS011;2328;48.170;11.602;2023-03-31T10:04:32;2.70;;;1.23;;
4630;SDS011;2328;48.170;11.602;2023-03-31T10:07:03;1.50;;;1.17;;
4630;SDS011;2328;48.170;11.602;2023-03-31T10:09:33;1.53;;;1.23;;
4630;SDS011;2328;48.170;11.602;2023-03-31T10:12:06;1.30;;;1.17;;
4630;SDS011;2328;48.170;11.602;2023-03-31T10:14:39;1.40;;;1.00;;
4630;SDS011;2328;48.170;11.602;2023-03-31T10:17:11;2.60;;;1.40;;
4630;SDS011;2328;48.170;11.602;2023-03-31T10:19:46;1.50;;;1.20;;
4630;SDS011;2328;48.170;11.602;2023-03-31T10:22:16;2.70;;;1.63;;
4630;SDS011;2328;48.170;11.602;2023-03-31T10:24:53;2.13;;;1.27;;
4630;SDS011;2328;48.170;11.602;2023-03-31T10:27:31;1.07;;;0.97;;
4630;SDS011;2328;48.170;11.602;2023-03-31T10:30:04;10.47;;;1.50;;
4630;SDS011;2328;48.170;11.602;2023-03-31T10:32:37;1.77;;;1.07;;
4630;SDS011;2328;48.170;11.602;2023-03-31T10:35:19;1.57;;;1.10;;
4630;SDS011;2328;48.170;11.602;2023-03-31T10:37:49;1.30;;;1.20;;
4630;SDS011;2328;48.170;11.602;2023-03-31T10:40:19;2.07;;;1.53;;
4630;SDS011;2328;48.170;11.602;2023-03-31T10:42:48;4.20;;;1.43;;
4630;SDS011;2328;48.170;11.602;2023-03-31T10:45:27;3.07;;;2.23;;
4630;SDS011;2328;48.170;11.602;2023-03-31T10:48:03;2.20;;;1.50;;
4630;SDS011;2328;48.170;11.602;2023-03-31T10:50:33;1.67;;;1.30;;
4630;SDS011;2328;48.170;11.602;2023-03-31T10:53:10;3.70;;;1.60;;
4630;SDS011;2328;48.170;11.602;2023-03-31T10:55:40;3.00;;;1.60;;
4630;SDS011;2328;48.170;11.602;2023-03-31T10:58:17;4.83;;;1.30;;
4630;SDS011;2328;48.170;11.602;2023-03-31T11:00:53;1.30;;;1.20;;
4630;SDS011;2328;48.170;11.602;2023-03-31T11:03:32;1.53;;;1.30;;
4630;SDS011;2328;48.170;11.602;2023-03-31T11:06:06;3.43;;;1.50;;
4630;SDS011;2328;48.170;11.602;2023-03-31T11:08:41;2.30;;;1.90;;
4630;SDS011;2328;48.170;11.602;2023-03-31T11:11:24;4.53;;;1.37;;
4630;SDS011;2328;48.170;11.602;2023-03-31T11:16:49;2.87;;;1.13;;
4630;SDS011;2328;48.170;11.602;2023-03-31T11:19:26;3.27;;;1.43;;
4630;SDS011;2328;48.170;11.602;2023-03-31T11:21:58;2.50;;;1.43;;
4630;SDS011;2328;48.170;11.602;2023-03-31T11:24:31;4.13;;;1.80;;
4630;SDS011;2328;48.170;11.602;2023-03-31T11:27:19;1.70;;;1.03;;
4630;SDS011;2328;48.170;11.602;2023-03-31T11:29:53;1.10;;;1.00;;
4630;SDS011;2328;48.170;11.602;2023-03-31T11:32:31;0.87;;;0.80;;
4630;SDS011;2328;48.170;11.602;2023-03-31T11:35:03;2.57;;;0.70;;
4630;SDS011;2328;48.170;11.602;2023-03-31T11:37:42;1.20;;;0.83;;
4630;SDS011;2328;48.170;11.602;2023-03-31T11:40:20;1.20;;;0.70;;
4630;SDS011;2328;48.170;11.602;2023-03-31T11:42:50;0.97;;;0.63;;
4630;SDS011;2328;48.170;11.602;2023-03-31T11:45:22;0.67;;;0.60;;
4630;SDS011;2328;48.170;11.602;2023-03-31T11:47:54;1.00;;;0.73;;
4630;SDS011;2328;48.170;11.602;2023-03-31T11:50:31;0.63;;;0.50;;
4630;SDS011;2328;48.170;11.602;2023-03-31T11:53:04;0.90;;;0.70;;
4630;SDS011;2328;48.170;11.602;2023-03-31T11:55:33;0.90;;;0.70;;
4630;SDS011;2328;48.170;11.602;2023-03-31T11:58:03;1.07;;;0.97;;
4630;SDS011;2328;48.170;11.602;2023-03-31T12:00:34;4.03;;;1.13;;
4630;SDS011;2328;48.170;11.602;2023-03-31T12:03:12;3.70;;;0.70;;
4630;SDS011;2328;48.170;11.602;2023-03-31T12:05:43;0.80;;;0.73;;
4630;SDS011;2328;48.170;11.602;2023-03-31T12:08:14;0.70;;;0.60;;
4630;SDS011;2328;48.170;11.602;2023-03-31T12:10:44;1.93;;;0.63;;
4630;SDS011;2328;48.170;11.602;2023-03-31T12:13:22;1.77;;;1.23;;
4630;SDS011;2328;48.170;11.602;2023-03-31T12:15:57;1.53;;;1.13;;
4630;SDS011;2328;48.170;11.602;2023-03-31T12:18:30;0.90;;;0.63;;
4630;SDS011;2328;48.170;11.602;2023-03-31T12:21:03;2.60;;;0.80;;
4630;SDS011;2328;48.170;11.602;2023-03-31T12:23:33;1.07;;;0.60;;
4630;SDS011;2328;48.170;11.602;2023-03-31T12:26:04;1.37;;;0.63;;
4630;SDS011;2328;48.170;11.602;2023-03-31T12:28:34;0.80;;;0.50;;
4630;SDS011;2328;48.170;11.602;2023-03-31T12:31:06;2.20;;;1.23;;
4630;SDS011;2328;48.170;11.602;2023-03-31T12:33:37;2.43;;;1.17;;
4630;SDS011;2328;48.170;11.602;2023-03-31T12:36:10;2.00;;;0.70;;
4630;SDS011;2328;48.170;11.602;2023-03-31T12:38:45;3.57;;;1.27;;
4630;SDS011;2328;48.170;11.602;2023-03-31T12:41:19;0.70;;;0.60;;
4630;SDS011;2328;48.170;11.602;2023-03-31T12:43:56;1.90;;;0.67;;
4630;SDS011;2328;48.170;11.602;2023-03-31T12:46:31;0.80;;;0.63;;
4630;SDS011;2328;48.170;11.602;2023-03-31T12:49:08;0.60;;;0.50;;
4630;SDS011;2328;48.170;11.602;2023-03-31T12:51:45;0.97;;;0.67;;
4630;SDS011;2328;48.170;11.602;2023-03-31T12:54:21;0.90;;;0.67;;
4630;SDS011;2328;48.170;11.602;2023-03-31T12:57:13;4.50;;;0.80;;
4630;SDS011;2328;48.170;11.602;2023-03-31T12:59:43;0.83;;;0.83;;
4630;SDS011;2328;48.170;11.602;2023-03-31T13:02:21;1.50;;;0.70;;
4630;SDS011;2328;48.170;11.602;2023-03-31T13:04:52;1.33;;;0.80;;
4630;SDS011;2328;48.170;11.602;2023-03-31T13:07:33;1.43;;;1.07;;
4630;SDS011;2328;48.170;11.602;2023-03-31T13:12:54;1.67;;;0.90;;
4630;SDS011;2328;48.170;11.602;2023-03-31T13:15:24;1.70;;;0.83;;
4630;SDS011;2328;48.170;11.602;2023-03-31T13:17:56;0.60;;;0.47;;
4630;SDS011;2328;48.170;11.602;2023-03-31T13:20:30;1.57;;;0.60;;
4630;SDS011;2328;48.170;11.602;2023-03-31T13:23:02;6.97;;;0.63;;
4630;SDS011;2328;48.170;11.602;2023-03-31T13:25:36;1.33;;;0.63;;
4630;SDS011;2328;48.170;11.602;2023-03-31T13:28:09;1.03;;;0.57;;
4630;SDS011;2328;48.170;11.602;2023-03-31T13:30:45;0.93;;;0.50;;
4630;SDS011;2328;48.170;11.602;2023-03-31T13:33:14;3.23;;;0.57;;
4630;SDS011;2328;48.170;11.602;2023-03-31T13:35:49;1.10;;;0.73;;
4630;SDS011;2328;48.170;11.602;2023-03-31T13:38:22;4.57;;;0.70;;
4630;SDS011;2328;48.170;11.602;2023-03-31T13:41:08;1.00;;;0.63;;
4630;SDS011;2328;48.170;11.602;2023-03-31T13:49:25;0.90;;;0.40;;
4630;SDS011;2328;48.170;11.602;2023-03-31T13:51:58;1.10;;;0.60;;
4630;SDS011;2328;48.170;11.602;2023-03-31T14:00:20;0.50;;;0.40;;
4630;SDS011;2328;48.170;11.602;2023-03-31T14:05:41;0.97;;;0.70;;
4630;SDS011;2328;48.170;11.602;2023-03-31T14:08:16;2.30;;;0.50;;
4630;SDS011;2328;48.170;11.602;2023-03-31T14:10:47;1.00;;;0.50;;
4630;SDS011;2328;48.170;11.602;2023-03-31T14:13:16;0.60;;;0.33;;
4630;SDS011;2328;48.170;11.602;2023-03-31T14:15:46;0.87;;;0.50;;
4630;SDS011;2328;48.170;11.602;2023-03-31T14:18:17;1.73;;;0.50;;
4630;SDS011;2328;48.170;11.602;2023-03-31T14:20:55;0.50;;;0.30;;
4630;SDS011;2328;48.170;11.602;2023-03-31T14:23:30;0.67;;;0.60;;
4630;SDS011;2328;48.170;11.602;2023-03-31T14:26:08;0.80;;;0.37;;
4630;SDS011;2328;48.170;11.602;2023-03-31T14:28:44;0.60;;;0.40;;
4630;SDS011;2328;48.170;11.602;2023-03-31T14:31:18;2.07;;;0.40;;
4630;SDS011;2328;48.170;11.602;2023-03-31T14:33:53;0.80;;;0.60;;
4630;SDS011;2328;48.170;11.602;2023-03-31T14:36:28;0.77;;;0.47;;
4630;SDS011;2328;48.170;11.602;2023-03-31T14:39:06;1.00;;;0.90;;
4630;SDS011;2328;48.170;11.602;2023-03-31T14:41:36;0.70;;;0.30;;
4630;SDS011;2328;48.170;11.602;2023-03-31T14:44:05;2.53;;;0.60;;
4630;SDS011;2328;48.170;11.602;2023-03-31T14:46:40;2.67;;;0.60;;
4630;SDS011;2328;48.170;11.602;2023-03-31T14:49:14;1.27;;;0.40;;
4630;SDS011;2328;48.170;11.602;2023-03-31T14:51:46;1.27;;;0.50;;
4630;SDS011;2328;48.170;11.602;2023-03-31T14:54:16;2.30;;;1.10;;
4630;SDS011;2328;48.170;11.602;2023-03-31T14:56:45;0.87;;;0.63;;
4630;SDS011;2328;48.170;11.602;2023-03-31T14:59:16;0.70;;;0.53;;
4630;SDS011;2328;48.170;11.602;2023-03-31T15:04:25;0.60;;;0.30;;
4630;SDS011;2328;48.170;11.602;2023-03-31T15:07:07;0.50;;;0.30;;
4630;SDS011;2328;48.170;11.602;2023-03-31T15:09:37;0.80;;;0.40;;
4630;SDS011;2328;48.170;11.602;2023-03-31T15:12:06;2.40;;;0.43;;
4630;SDS011;2328;48.170;11.602;2023-03-31T15:14:41;1.93;;;0.60;;
4630;SDS011;2328;48.170;11.602;2023-03-31T15:17:24;0.50;;;0.30;;
4630;SDS011;2328;48.170;11.602;2023-03-31T15:20:20;0.50;;;0.30;;
4630;SDS011;2328;48.170;11.602;2023-03-31T15:22:49;0.60;;;0.30;;
4630;SDS011;2328;48.170;11.602;2023-03-31T15:25:28;0.70;;;0.47;;
4630;SDS011;2328;48.170;11.602;2023-03-31T15:27:59;0.70;;;0.40;;
4630;SDS011;2328;48.170;11.602;2023-03-31T15:30:36;0.60;;;0.50;;
4630;SDS011;2328;48.170;11.602;2023-03-31T15:33:05;1.60;;;0.77;;
4630;SDS011;2328;48.170;11.602;2023-03-31T15:35:44;0.50;;;0.30;;
4630;SDS011;2328;48.170;11.602;2023-03-31T15:38:14;0.90;;;0.53;;
4630;SDS011;2328;48.170;11.602;2023-03-31T15:40:47;1.80;;;0.60;;
4630;SDS011;2328;48.170;11.602;2023-03-31T15:43:17;1.73;;;0.57;;
4630;SDS011;2328;48.170;11.602;2023-03-31T15:45:51;0.90;;;0.60;;
4630;SDS011;2328;48.170;11.602;2023-03-31T15:48:22;0.90;;;0.50;;
4630;SDS011;2328;48.170;11.602;2023-03-31T15:51:00;0.73;;;0.53;;
4630;SDS011;2328;48.170;11.602;2023-03-31T15:53:30;5.13;;;0.97;;
4630;SDS011;2328;48.170;11.602;2023-03-31T15:56:01;3.50;;;0.60;;
4630;SDS011;2328;48.170;11.602;2023-03-31T15:58:46;2.33;;;0.67;;
4630;SDS011;2328;48.170;11.602;2023-03-31T16:01:14;0.90;;;0.50;;
4630;SDS011;2328;48.170;11.602;2023-03-31T16:03:51;3.03;;;0.67;;